Time;durP1;ratioP1;P1;durP2;ratioP2;P2;SDS_P1;SDS_P2;PMS_P1;PMS_P2;Temp;Humidity;BMP_temperature;BMP_pressure;BME280_temperature;BME280_humidity;BME280_pressure;Samples;Min_cycle;Max_cycle;Signal;HPM_P1;HPM_P2
2022/12/31 00:01:18;;;;;;;9.70;7.70;;;;;;;;;;108261;1262;43388;-37
2022/12/31 00:03:49;;;;;;;9.70;7.40;;;;;;;;;;108188;1260;42478;-38
2022/12/31 00:06:24;;;;;;;10.30;7.60;;;;;;;;;;108037;1267;175447;-39
2022/12/31 00:08:57;;;;;;;9.60;7.70;;;;;;;;;;108138;1267;40681;-39
2022/12/31 00:11:31;;;;;;;10.20;7.80;;;;;;;;;;108100;1273;43659;-39
2022/12/31 00:14:02;;;;;;;9.60;7.60;;;;;;;;;;108151;1263;42516;-38
2022/12/31 00:16:35;;;;;;;10.00;7.70;;;;;;;;;;108248;1269;40443;-38
2022/12/31 00:19:08;;;;;;;10.20;7.80;;;;;;;;;;108238;1267;40237;-38
2022/12/31 00:21:41;;;;;;;9.60;7.80;;;;;;;;;;108244;1264;43343;-39
2022/12/31 00:24:15;;;;;;;10.60;8.00;;;;;;;;;;108092;1262;42427;-39
2022/12/31 00:26:45;;;;;;;10.40;8.10;;;;;;;;;;108126;1272;39326;-38
2022/12/31 00:29:15;;;;;;;9.80;7.90;;;;;;;;;;108108;1271;42515;-38
2022/12/31 00:31:45;;;;;;;10.70;8.10;;;;;;;;;;107973;1271;43587;-38
2022/12/31 00:34:21;;;;;;;9.90;8.20;;;;;;;;;;108185;1257;43083;-38
2022/12/31 00:36:54;;;;;;;10.00;7.80;;;;;;;;;;108266;1269;39287;-37
2022/12/31 00:39:24;;;;;;;;;;;;;;;;;;108297;1272;40579;-37
2022/12/31 00:41:56;;;;;;;10.40;7.40;;;;;;;;;;108284;1262;43207;-37
2022/12/31 00:44:26;;;;;;;9.90;7.70;;;;;;;;;;108194;1261;42590;-37
2022/12/31 00:46:57;;;;;;;10.50;8.40;;;;;;;;;;108168;1262;40184;-37
2022/12/31 00:49:32;;;;;;;9.30;7.90;;;;;;;;;;108179;1262;40638;-37
2022/12/31 00:52:02;;;;;;;9.50;7.30;;;;;;;;;;108068;1262;175559;-37
2022/12/31 00:54:37;;;;;;;10.60;8.00;;;;;;;;;;108171;1262;42589;-37
2022/12/31 00:57:07;;;;;;;10.70;7.80;;;;;;;;;;108282;1262;39067;-37
2022/12/31 00:59:42;;;;;;;10.00;8.00;;;;;;;;;;108247;1262;42872;-36
2022/12/31 01:02:17;;;;;;;9.80;7.70;;;;;;;;;;108285;1263;43827;-36
2022/12/31 01:04:50;;;;;;;10.00;8.40;;;;;;;;;;108202;1262;42863;-36
2022/12/31 01:07:20;;;;;;;9.70;7.80;;;;;;;;;;108169;1262;39069;-36
2022/12/31 01:09:52;;;;;;;10.60;8.20;;;;;;;;;;108203;1273;40453;-36
2022/12/31 01:12:24;;;;;;;11.10;8.60;;;;;;;;;;108190;1263;43349;-36
2022/12/31 01:14:54;;;;;;;10.10;8.10;;;;;;;;;;108156;1262;42588;-36
2022/12/31 01:17:25;;;;;;;9.70;7.70;;;;;;;;;;108253;1264;39073;-36
2022/12/31 01:20:00;;;;;;;9.70;7.60;;;;;;;;;;108278;1266;40274;-36
2022/12/31 01:22:33;;;;;;;10.60;8.10;;;;;;;;;;108292;1269;43560;-36
2022/12/31 01:25:07;;;;;;;10.20;8.00;;;;;;;;;;108232;1262;42506;-36
2022/12/31 01:27:38;;;;;;;9.40;7.60;;;;;;;;;;108187;1275;38950;-36
2022/12/31 01:30:11;;;;;;;11.10;8.10;;;;;;;;;;108215;1263;40630;-36
2022/12/31 01:32:41;;;;;;;;;;;;;;;;;;108224;1269;43641;-36
2022/12/31 01:35:14;;;;;;;10.00;8.10;;;;;;;;;;108152;1262;41758;-36
2022/12/31 01:37:44;;;;;;;9.90;7.90;;;;;;;;;;108286;1262;39132;-36
2022/12/31 01:40:17;;;;;;;9.80;8.10;;;;;;;;;;108276;1263;40802;-37
2022/12/31 01:42:54;;;;;;;9.50;7.70;;;;;;;;;;108258;1262;44758;-37
2022/12/31 01:45:25;;;;;;;11.10;8.10;;;;;;;;;;108161;1262;42436;-37
2022/12/31 01:47:59;;;;;;;10.10;8.10;;;;;;;;;;108152;1266;39054;-37
2022/12/31 01:50:33;;;;;;;10.40;8.10;;;;;;;;;;108215;1273;40212;-37
2022/12/31 01:53:07;;;;;;;9.40;7.70;;;;;;;;;;108158;1262;46589;-37
2022/12/31 01:55:44;;;;;;;9.80;8.00;;;;;;;;;;108188;1262;42527;-37
2022/12/31 01:58:21;;;;;;;10.60;7.80;;;;;;;;;;108310;1262;39190;-37
2022/12/31 02:00:53;;;;;;;11.00;8.00;;;;;;;;;;108296;1262;40208;-37
2022/12/31 02:03:26;;;;;;;9.70;8.00;;;;;;;;;;108252;1272;43509;-37
2022/12/31 02:06:10;;;;;;;9.50;8.00;;;;;;;;;;108163;1262;42337;-36
2022/12/31 02:08:41;;;;;;;;;;;;;;;;;;108156;1262;39060;-36
2022/12/31 02:11:26;;;;;;;10.50;8.10;;;;;;;;;;108155;1260;40546;-36
2022/12/31 02:14:01;;;;;;;10.10;8.00;;;;;;;;;;108175;1262;43764;-36
2022/12/31 02:16:44;;;;;;;10.80;8.40;;;;;;;;;;108172;1273;43002;-36
2022/12/31 02:19:50;;;;;;;10.20;8.00;;;;;;;;;;108256;1270;39052;-36
2022/12/31 02:22:38;;;;;;;9.80;7.70;;;;;;;;;;108254;1267;40615;-37
2022/12/31 02:25:41;;;;;;;9.50;7.60;;;;;;;;;;108239;1269;43619;-37
2022/12/31 02:28:24;;;;;;;9.60;7.60;;;;;;;;;;108179;1272;48592;-37
2022/12/31 02:30:59;;;;;;;;;;;;;;;;;;108069;1260;175771;-37
2022/12/31 02:33:35;;;;;;;11.00;7.80;;;;;;;;;;108191;1270;40340;-36
2022/12/31 02:36:18;;;;;;;9.70;7.70;;;;;;;;;;108147;1257;43593;-36
2022/12/31 02:38:49;;;;;;;10.60;8.00;;;;;;;;;;108261;1262;42654;-36
2022/12/31 02:44:24;;;;;;;9.80;7.20;;;;;;;;;;108150;1263;40397;-37
2022/12/31 02:47:17;;;;;;;11.20;8.60;;;;;;;;;;108239;1258;44241;-37
2022/12/31 02:50:03;;;;;;;9.40;7.30;;;;;;;;;;108156;1272;42592;-37
2022/12/31 02:52:48;;;;;;;9.50;7.40;;;;;;;;;;108168;1273;39186;-37
2022/12/31 02:55:25;;;;;;;10.20;7.60;;;;;;;;;;108199;1271;40723;-37
2022/12/31 02:58:05;;;;;;;9.20;7.30;;;;;;;;;;108217;1266;43624;-37
2022/12/31 03:03:34;;;;;;;9.70;7.70;;;;;;;;;;108307;1269;39074;-36
2022/12/31 03:06:09;;;;;;;8.80;7.30;;;;;;;;;;108299;1272;40566;-37
2022/12/31 03:14:16;;;;;;;9.50;7.40;;;;;;;;;;107520;1271;893769;-37
2022/12/31 03:16:53;;;;;;;9.80;7.70;;;;;;;;;;108149;1263;40246;-37
2022/12/31 03:22:31;;;;;;;10.90;7.40;;;;;;;;;;108244;1261;42481;-37
2022/12/31 03:28:03;;;;;;;9.10;7.70;;;;;;;;;;108188;1262;40240;-36
2022/12/31 03:30:35;;;;;;;9.20;7.20;;;;;;;;;;108186;1262;43659;-36
2022/12/31 03:33:06;;;;;;;9.80;7.50;;;;;;;;;;108220;1262;42586;-37
2022/12/31 03:35:38;;;;;;;9.90;7.50;;;;;;;;;;108171;1263;39032;-37
2022/12/31 03:38:08;;;;;;;9.70;7.60;;;;;;;;;;108224;1262;41658;-37
2022/12/31 03:40:44;;;;;;;9.30;7.30;;;;;;;;;;108321;1262;43412;-37
2022/12/31 03:43:15;;;;;;;9.10;7.70;;;;;;;;;;108247;1271;42480;-37
2022/12/31 03:45:47;;;;;;;9.90;8.00;;;;;;;;;;108260;1257;40369;-36
2022/12/31 03:48:18;;;;;;;9.30;7.50;;;;;;;;;;108208;1271;40520;-36
2022/12/31 03:50:50;;;;;;;8.90;7.70;;;;;;;;;;108158;1273;43557;-36
2022/12/31 03:53:22;;;;;;;9.60;7.30;;;;;;;;;;108143;1275;43170;-36
2022/12/31 03:55:55;;;;;;;9.70;7.40;;;;;;;;;;108163;1275;39031;-36
2022/12/31 03:58:25;;;;;;;9.40;6.60;;;;;;;;;;108199;1262;40236;-36
2022/12/31 04:00:55;;;;;;;8.40;6.80;;;;;;;;;;108264;1269;43794;-36
2022/12/31 04:03:27;;;;;;;9.00;6.70;;;;;;;;;;108235;1257;42524;-37
2022/12/31 04:05:57;;;;;;;9.80;7.40;;;;;;;;;;108238;1262;39096;-37
2022/12/31 04:08:28;;;;;;;9.60;6.90;;;;;;;;;;108209;1262;40481;-37
2022/12/31 04:10:58;;;;;;;9.00;7.80;;;;;;;;;;108175;1262;44316;-37
2022/12/31 04:13:28;;;;;;;9.30;7.20;;;;;;;;;;108151;1274;42636;-37
2022/12/31 04:16:01;;;;;;;9.50;7.20;;;;;;;;;;108219;1263;39060;-37
2022/12/31 04:18:31;;;;;;;9.00;7.20;;;;;;;;;;108038;1257;41216;-37
2022/12/31 04:21:03;;;;;;;9.60;7.50;;;;;;;;;;108226;1266;43628;-38
2022/12/31 04:23:33;;;;;;;8.50;6.90;;;;;;;;;;107510;1264;893803;-39
2022/12/31 04:26:03;;;;;;;9.30;7.30;;;;;;;;;;108229;1269;38021;-39
2022/12/31 04:28:36;;;;;;;8.90;7.20;;;;;;;;;;108199;1262;40256;-38
2022/12/31 04:31:06;;;;;;;8.50;7.00;;;;;;;;;;108164;1263;43379;-38
2022/12/31 04:33:36;;;;;;;9.20;7.20;;;;;;;;;;108154;1272;42794;-38
2022/12/31 04:36:09;;;;;;;10.00;7.30;;;;;;;;;;108136;1262;39114;-40
2022/12/31 04:38:42;;;;;;;8.90;6.60;;;;;;;;;;108144;1262;42162;-37
2022/12/31 04:41:19;;;;;;;8.50;6.50;;;;;;;;;;108249;1263;43588;-39
2022/12/31 04:43:53;;;;;;;8.50;6.70;;;;;;;;;;108254;1270;42566;-39
2022/12/31 04:46:26;;;;;;;8.80;6.90;;;;;;;;;;108267;1269;39174;-38
2022/12/31 04:48:57;;;;;;;8.80;7.30;;;;;;;;;;108191;1257;40572;-39
2022/12/31 04:51:29;;;;;;;9.10;7.00;;;;;;;;;;108159;1259;43625;-37
2022/12/31 04:54:02;;;;;;;9.10;7.20;;;;;;;;;;108177;1269;42729;-38
2022/12/31 04:56:35;;;;;;;8.50;6.60;;;;;;;;;;108152;1262;40462;-38
2022/12/31 04:59:07;;;;;;;8.70;6.70;;;;;;;;;;108117;1257;41790;-37
2022/12/31 05:01:38;;;;;;;9.20;7.00;;;;;;;;;;108169;1272;43465;-38
2022/12/31 05:04:08;;;;;;;8.50;7.10;;;;;;;;;;108239;1269;43673;-38
2022/12/31 05:06:38;;;;;;;8.90;6.90;;;;;;;;;;108232;1261;39608;-38
2022/12/31 05:09:09;;;;;;;8.80;6.80;;;;;;;;;;108166;1262;40521;-39
2022/12/31 05:11:39;;;;;;;8.70;6.80;;;;;;;;;;108142;1263;43810;-38
2022/12/31 05:14:11;;;;;;;8.90;6.90;;;;;;;;;;108140;1273;42392;-38
2022/12/31 05:16:45;;;;;;;9.30;7.00;;;;;;;;;;108153;1269;39091;-38
2022/12/31 05:19:18;;;;;;;8.50;6.80;;;;;;;;;;108023;1263;177642;-38
2022/12/31 05:24:33;;;;;;;8.80;7.00;;;;;;;;;;108016;1270;279126;-38
2022/12/31 05:27:04;;;;;;;8.60;6.80;;;;;;;;;;108201;1269;39112;-39
2022/12/31 05:29:39;;;;;;;8.20;6.70;;;;;;;;;;108215;1263;40416;-39
2022/12/31 05:32:10;;;;;;;8.00;6.30;;;;;;;;;;108137;1273;43402;-38
2022/12/31 05:34:41;;;;;;;8.10;6.30;;;;;;;;;;108155;1273;42354;-38
2022/12/31 05:37:15;;;;;;;9.00;6.90;;;;;;;;;;108155;1271;39060;-38
2022/12/31 05:39:48;;;;;;;8.30;6.30;;;;;;;;;;108102;1267;40508;-37
2022/12/31 05:42:24;;;;;;;8.70;6.70;;;;;;;;;;108217;1263;45407;-38
2022/12/31 05:44:53;;;;;;;;;;;;;;;;;;108230;1271;42574;-38
2022/12/31 05:47:23;;;;;;;9.00;7.00;;;;;;;;;;108205;1273;37958;-39
2022/12/31 05:49:53;;;;;;;8.40;6.40;;;;;;;;;;108187;1258;40175;-38
2022/12/31 05:52:23;;;;;;;8.80;6.20;;;;;;;;;;108140;1265;44873;-37
2022/12/31 05:54:53;;;;;;;8.80;6.60;;;;;;;;;;108158;1269;43503;-39
2022/12/31 05:57:26;;;;;;;8.00;6.80;;;;;;;;;;108151;1263;39179;-38
2022/12/31 05:59:56;;;;;;;8.80;6.30;;;;;;;;;;108101;1263;40575;-38
2022/12/31 06:02:29;;;;;;;8.80;6.80;;;;;;;;;;108209;1260;50493;-38
2022/12/31 06:04:59;;;;;;;9.00;6.40;;;;;;;;;;108071;1261;175729;-38
2022/12/31 06:07:29;;;;;;;8.70;6.70;;;;;;;;;;108210;1263;39201;-37
2022/12/31 06:10:00;;;;;;;8.10;6.10;;;;;;;;;;108103;1270;175773;-38
2022/12/31 06:12:30;;;;;;;8.10;6.40;;;;;;;;;;108108;1264;51248;-38
2022/12/31 06:15:00;;;;;;;7.80;6.50;;;;;;;;;;108029;1270;175385;-39
2022/12/31 06:17:31;;;;;;;9.30;6.70;;;;;;;;;;108154;1263;38094;-37
2022/12/31 06:20:04;;;;;;;8.10;6.60;;;;;;;;;;108132;1269;41795;-38
2022/12/31 06:22:42;;;;;;;8.10;6.60;;;;;;;;;;108182;1261;49357;-39
2022/12/31 06:25:12;;;;;;;7.80;6.50;;;;;;;;;;108237;1272;43922;-38
2022/12/31 06:27:43;;;;;;;8.70;6.70;;;;;;;;;;108253;1263;39358;-38
2022/12/31 06:30:14;;;;;;;7.90;6.30;;;;;;;;;;108251;1270;40656;-38
2022/12/31 06:32:45;;;;;;;8.00;6.10;;;;;;;;;;108119;1258;44110;-39
2022/12/31 06:35:16;;;;;;;7.50;6.30;;;;;;;;;;108140;1273;42953;-38
2022/12/31 06:37:46;;;;;;;7.70;6.10;;;;;;;;;;108136;1267;39160;-38
2022/12/31 06:40:16;;;;;;;7.50;6.00;;;;;;;;;;108116;1273;40531;-39
2022/12/31 06:42:46;;;;;;;7.90;6.10;;;;;;;;;;108202;1261;43806;-38
2022/12/31 06:45:17;;;;;;;7.10;5.50;;;;;;;;;;108201;1261;42685;-38
2022/12/31 06:47:50;;;;;;;7.40;6.40;;;;;;;;;;108211;1260;39067;-37
2022/12/31 06:50:23;;;;;;;9.00;6.20;;;;;;;;;;108213;1261;40424;-38
2022/12/31 06:52:52;;;;;;;;;;;;;;;;;;108106;1271;43458;-38
2022/12/31 06:55:24;;;;;;;9.10;6.30;;;;;;;;;;108031;1270;175767;-39
2022/12/31 06:57:56;;;;;;;7.60;6.10;;;;;;;;;;108157;1263;40634;-38
2022/12/31 07:00:29;;;;;;;7.80;5.50;;;;;;;;;;108136;1267;40809;-41
2022/12/31 07:03:13;;;;;;;;;;;;;;;;;;108208;1260;43698;-38
2022/12/31 07:05:50;;;;;;;7.80;5.90;;;;;;;;;;108194;1257;42084;-40
2022/12/31 07:08:46;;;;;;;7.90;5.70;;;;;;;;;;108222;1261;39315;-38
2022/12/31 07:11:22;;;;;;;7.90;6.00;;;;;;;;;;108187;1258;40555;-39
2022/12/31 07:14:10;;;;;;;7.80;6.10;;;;;;;;;;107985;1272;49125;-38
2022/12/31 07:16:57;;;;;;;7.70;6.10;;;;;;;;;;108025;1264;42470;-40
2022/12/31 07:19:45;;;;;;;6.90;5.60;;;;;;;;;;108021;1270;39141;-38
2022/12/31 07:22:19;;;;;;;7.90;5.70;;;;;;;;;;108006;1267;40838;-40
2022/12/31 07:24:52;;;;;;;8.20;5.60;;;;;;;;;;108171;1267;43666;-38
2022/12/31 07:27:49;;;;;;;7.80;5.20;;;;;;;;;;108195;1261;42690;-40
2022/12/31 07:30:23;;;;;;;7.70;5.70;;;;;;;;;;108236;1272;38912;-38
2022/12/31 07:33:23;;;;;;;7.20;5.40;;;;;;;;;;108142;1263;40791;-39
2022/12/31 07:36:09;;;;;;;7.90;5.50;;;;;;;;;;108145;1262;44847;-38
2022/12/31 07:38:52;;;;;;;7.80;5.30;;;;;;;;;;108134;1273;42325;-38
2022/12/31 07:41:44;;;;;;;8.90;5.50;;;;;;;;;;108115;1267;39231;-38
2022/12/31 07:44:38;;;;;;;8.40;5.60;;;;;;;;;;108191;1260;40365;-37
2022/12/31 07:47:21;;;;;;;7.50;5.50;;;;;;;;;;108265;1270;46056;-37
2022/12/31 07:49:54;;;;;;;7.00;5.30;;;;;;;;;;108247;1258;42626;-37
2022/12/31 07:52:27;;;;;;;7.60;5.60;;;;;;;;;;108213;1266;39221;-37
2022/12/31 07:55:02;;;;;;;7.40;5.50;;;;;;;;;;108202;1264;46461;-37
2022/12/31 07:57:40;;;;;;;7.60;5.10;;;;;;;;;;108199;1273;43454;-37
2022/12/31 08:00:16;;;;;;;8.40;6.20;;;;;;;;;;108146;1270;42460;-37
2022/12/31 08:03:12;;;;;;;7.10;4.90;;;;;;;;;;108152;1257;39081;-37
2022/12/31 08:05:51;;;;;;;7.30;5.60;;;;;;;;;;108291;1260;41723;-37
2022/12/31 08:08:40;;;;;;;7.70;5.60;;;;;;;;;;108268;1261;44447;-37
2022/12/31 08:11:20;;;;;;;7.70;5.40;;;;;;;;;;108222;1269;42682;-37
2022/12/31 08:13:53;;;;;;;7.50;5.10;;;;;;;;;;108153;1264;40674;-37
2022/12/31 08:16:25;;;;;;;7.00;5.60;;;;;;;;;;108212;1263;40255;-37
2022/12/31 08:18:57;;;;;;;7.70;5.70;;;;;;;;;;108147;1273;43358;-37
2022/12/31 08:21:44;;;;;;;7.80;5.40;;;;;;;;;;108126;1273;42649;-37
2022/12/31 08:24:25;;;;;;;7.70;5.00;;;;;;;;;;108134;1263;39426;-37
2022/12/31 08:27:04;;;;;;;7.30;5.10;;;;;;;;;;108258;1270;41773;-38
2022/12/31 08:29:46;;;;;;;6.40;4.80;;;;;;;;;;108215;1267;43333;-38
2022/12/31 08:32:23;;;;;;;7.50;5.10;;;;;;;;;;108309;1260;42654;-38
2022/12/31 08:35:05;;;;;;;7.40;5.10;;;;;;;;;;108217;1260;38994;-38
2022/12/31 08:37:46;;;;;;;7.20;4.80;;;;;;;;;;108206;1264;40593;-38
2022/12/31 08:40:23;;;;;;;8.80;5.40;;;;;;;;;;108216;1267;43726;-38
2022/12/31 08:43:16;;;;;;;7.20;4.50;;;;;;;;;;108289;1263;42585;-38
2022/12/31 08:45:52;;;;;;;6.70;5.00;;;;;;;;;;108289;1257;44811;-38
2022/12/31 08:48:35;;;;;;;6.40;4.90;;;;;;;;;;108323;1260;40792;-38
2022/12/31 08:51:14;;;;;;;6.60;4.90;;;;;;;;;;108235;1270;43814;-38
2022/12/31 08:53:47;;;;;;;6.40;4.60;;;;;;;;;;108189;1260;42502;-39
2022/12/31 08:56:28;;;;;;;7.30;4.70;;;;;;;;;;108256;1263;45177;-38
2022/12/31 08:59:20;;;;;;;6.70;4.80;;;;;;;;;;108285;1262;40599;-39
2022/12/31 09:02:19;;;;;;;6.40;4.80;;;;;;;;;;108141;1264;43507;-38
2022/12/31 09:05:04;;;;;;;7.30;4.90;;;;;;;;;;108134;1261;42618;-39
2022/12/31 09:07:38;;;;;;;6.40;4.40;;;;;;;;;;108300;1260;39100;-38
2022/12/31 09:10:22;;;;;;;6.50;4.30;;;;;;;;;;108314;1261;40674;-38
2022/12/31 09:13:05;;;;;;;6.60;4.70;;;;;;;;;;108295;1267;43692;-36
2022/12/31 09:15:42;;;;;;;6.30;4.10;;;;;;;;;;108242;1262;44034;-39
2022/12/31 09:18:16;;;;;;;6.60;4.60;;;;;;;;;;107585;1273;891917;-38
2022/12/31 09:20:46;;;;;;;;;;;;;;;;;;108245;1267;40534;-38
2022/12/31 09:23:18;;;;;;;6.50;4.00;;;;;;;;;;108227;1258;43560;-38
2022/12/31 09:26:01;;;;;;;6.90;4.60;;;;;;;;;;108248;1257;42512;-38
2022/12/31 09:28:44;;;;;;;5.50;3.90;;;;;;;;;;108305;1260;39342;-38
2022/12/31 09:31:18;;;;;;;6.70;4.00;;;;;;;;;;108320;1269;40433;-37
2022/12/31 09:33:54;;;;;;;7.10;4.20;;;;;;;;;;107593;1272;912723;-37
2022/12/31 09:36:31;;;;;;;6.80;4.60;;;;;;;;;;108088;1257;175687;-39
2022/12/31 09:39:14;;;;;;;6.40;4.40;;;;;;;;;;108256;1270;39296;-38
2022/12/31 09:42:33;;;;;;;6.30;4.30;;;;;;;;;;108190;1264;41886;-38
2022/12/31 09:45:30;;;;;;;5.80;3.90;;;;;;;;;;108144;1263;44891;-38
2022/12/31 09:48:52;;;;;;;8.40;4.10;;;;;;;;;;108336;1257;42400;-40
2022/12/31 09:51:31;;;;;;;7.80;4.40;;;;;;;;;;108258;1269;39119;-37
2022/12/31 09:54:31;;;;;;;6.10;4.10;;;;;;;;;;108158;1261;175724;-38
2022/12/31 09:57:19;;;;;;;6.00;4.30;;;;;;;;;;108157;1262;43595;-42
2022/12/31 09:59:56;;;;;;;5.70;4.10;;;;;;;;;;108075;1273;42463;-41
2022/12/31 10:02:51;;;;;;;7.40;4.40;;;;;;;;;;108132;1264;39340;-41
2022/12/31 10:05:53;;;;;;;6.30;4.60;;;;;;;;;;108098;1265;40733;-41
2022/12/31 10:08:45;;;;;;;5.50;4.40;;;;;;;;;;108193;1267;43776;-42
2022/12/31 10:11:23;;;;;;;5.80;4.00;;;;;;;;;;108125;1263;42550;-40
2022/12/31 10:14:18;;;;;;;6.20;4.20;;;;;;;;;;108196;1260;41243;-38
2022/12/31 10:17:05;;;;;;;6.30;4.90;;;;;;;;;;108139;1261;41727;-39
2022/12/31 10:20:28;;;;;;;7.20;4.90;;;;;;;;;;108121;1273;44265;-40
2022/12/31 10:23:38;;;;;;;7.20;4.70;;;;;;;;;;108121;1267;42522;-38
2022/12/31 10:26:31;;;;;;;6.80;4.20;;;;;;;;;;108136;1260;39014;-39
2022/12/31 10:29:18;;;;;;;6.10;4.30;;;;;;;;;;108156;1261;40444;-41
2022/12/31 10:32:04;;;;;;;6.60;4.20;;;;;;;;;;108161;1260;43549;-41
2022/12/31 10:34:52;;;;;;;7.30;4.80;;;;;;;;;;108128;1270;42675;-38
2022/12/31 10:37:29;;;;;;;6.70;4.60;;;;;;;;;;108074;1262;39328;-37
2022/12/31 10:40:19;;;;;;;7.00;4.50;;;;;;;;;;108104;1264;40461;-38
2022/12/31 10:43:38;;;;;;;8.00;4.80;;;;;;;;;;108090;1270;43927;-37
2022/12/31 10:46:46;;;;;;;6.70;4.30;;;;;;;;;;108061;1256;42671;-39
2022/12/31 10:50:05;;;;;;;8.10;4.50;;;;;;;;;;108138;1271;40510;-37
2022/12/31 10:53:28;;;;;;;6.90;4.40;;;;;;;;;;108152;1260;40606;-37
2022/12/31 10:56:47;;;;;;;6.50;4.00;;;;;;;;;;108172;1257;43620;-37
2022/12/31 11:00:09;;;;;;;7.30;4.30;;;;;;;;;;107891;1257;51150;-37
2022/12/31 11:03:37;;;;;;;7.40;4.00;;;;;;;;;;108021;1261;175656;-39
2022/12/31 11:07:01;;;;;;;6.90;3.90;;;;;;;;;;108128;1261;40677;-37
2022/12/31 11:10:08;;;;;;;5.90;4.10;;;;;;;;;;108130;1260;49256;-37
2022/12/31 11:13:28;;;;;;;7.00;4.00;;;;;;;;;;108188;1266;42638;-37
2022/12/31 11:16:29;;;;;;;7.30;3.90;;;;;;;;;;108120;1264;39196;-38
2022/12/31 11:19:06;;;;;;;7.20;4.10;;;;;;;;;;108073;1265;40563;-39
2022/12/31 11:21:57;;;;;;;8.40;4.50;;;;;;;;;;108080;1257;43894;-37
2022/12/31 11:25:04;;;;;;;7.80;4.50;;;;;;;;;;108106;1259;42854;-37
2022/12/31 11:28:08;;;;;;;8.70;4.90;;;;;;;;;;108112;1262;40291;-38
2022/12/31 11:30:54;;;;;;;9.40;5.40;;;;;;;;;;108207;1270;47064;-38
2022/12/31 11:33:50;;;;;;;10.00;5.30;;;;;;;;;;108142;1266;43868;-37
2022/12/31 11:36:35;;;;;;;10.40;5.40;;;;;;;;;;108195;1269;42584;-39
2022/12/31 11:39:31;;;;;;;8.50;4.80;;;;;;;;;;108118;1261;40122;-39
2022/12/31 11:42:15;;;;;;;11.10;6.00;;;;;;;;;;108093;1262;40969;-39
2022/12/31 11:44:55;;;;;;;7.80;4.80;;;;;;;;;;108113;1265;43886;-39
2022/12/31 11:47:56;;;;;;;9.30;4.90;;;;;;;;;;108101;1263;42386;-39
2022/12/31 11:51:00;;;;;;;9.30;4.70;;;;;;;;;;108121;1263;39107;-37
2022/12/31 11:54:00;;;;;;;7.80;4.20;;;;;;;;;;108196;1272;40251;-38
2022/12/31 11:56:34;;;;;;;8.20;4.50;;;;;;;;;;108125;1270;43775;-39
2022/12/31 11:59:11;;;;;;;8.30;4.70;;;;;;;;;;108140;1257;43975;-40
2022/12/31 12:01:57;;;;;;;9.80;4.90;;;;;;;;;;108067;1263;39069;-41
2022/12/31 12:04:26;;;;;;;8.10;4.50;;;;;;;;;;108092;1262;40790;-41
2022/12/31 12:06:56;;;;;;;10.10;4.80;;;;;;;;;;108072;1270;43367;-40
2022/12/31 12:09:30;;;;;;;6.90;4.10;;;;;;;;;;108040;1257;43534;-39
2022/12/31 12:12:02;;;;;;;7.40;4.40;;;;;;;;;;108202;1260;39289;-38
2022/12/31 12:14:35;;;;;;;8.00;4.60;;;;;;;;;;108169;1270;40680;-38
2022/12/31 12:17:09;;;;;;;9.10;4.60;;;;;;;;;;108214;1261;45184;-37
2022/12/31 12:19:46;;;;;;;7.40;4.20;;;;;;;;;;108079;1261;42923;-38
2022/12/31 12:22:24;;;;;;;12.40;4.20;;;;;;;;;;108105;1270;40382;-37
2022/12/31 12:25:01;;;;;;;7.80;4.50;;;;;;;;;;108130;1262;40536;-37
2022/12/31 12:27:34;;;;;;;9.00;4.50;;;;;;;;;;108120;1265;43720;-38
2022/12/31 12:30:19;;;;;;;9.70;4.80;;;;;;;;;;108107;1260;43799;-39
2022/12/31 12:32:58;;;;;;;6.90;3.90;;;;;;;;;;108217;1256;40382;-38
2022/12/31 12:35:38;;;;;;;7.20;3.80;;;;;;;;;;108167;1272;40203;-37
2022/12/31 12:38:14;;;;;;;8.00;4.10;;;;;;;;;;108168;1269;43894;-37
2022/12/31 12:40:56;;;;;;;8.80;4.10;;;;;;;;;;108147;1262;42635;-37
2022/12/31 12:43:30;;;;;;;8.10;3.80;;;;;;;;;;108114;1261;40429;-37
2022/12/31 12:46:06;;;;;;;7.10;3.90;;;;;;;;;;108152;1270;40480;-37
2022/12/31 12:48:41;;;;;;;6.60;3.80;;;;;;;;;;108141;1265;44817;-37
2022/12/31 12:51:27;;;;;;;7.10;4.00;;;;;;;;;;108116;1260;42535;-37
2022/12/31 12:54:05;;;;;;;8.30;4.20;;;;;;;;;;108150;1266;40418;-37
2022/12/31 12:56:48;;;;;;;8.20;4.00;;;;;;;;;;108164;1260;40342;-38
2022/12/31 12:59:53;;;;;;;7.00;3.80;;;;;;;;;;108213;1261;44906;-40
2022/12/31 13:02:59;;;;;;;6.70;3.80;;;;;;;;;;108013;1271;48204;-39
2022/12/31 13:05:51;;;;;;;8.10;3.90;;;;;;;;;;108144;1260;39126;-39
2022/12/31 13:08:35;;;;;;;6.70;3.60;;;;;;;;;;108139;1262;41982;-39
2022/12/31 13:11:31;;;;;;;7.40;3.80;;;;;;;;;;108072;1264;43759;-38
2022/12/31 13:14:15;;;;;;;6.10;3.30;;;;;;;;;;108167;1269;42503;-39
2022/12/31 13:16:55;;;;;;;6.40;3.90;;;;;;;;;;108159;1268;39295;-38
2022/12/31 13:19:35;;;;;;;7.50;3.60;;;;;;;;;;108202;1260;40614;-38
2022/12/31 13:22:14;;;;;;;6.40;3.40;;;;;;;;;;108078;1259;43674;-39
2022/12/31 13:24:57;;;;;;;6.30;3.20;;;;;;;;;;107871;1265;338779;-36
2022/12/31 13:27:34;;;;;;;5.90;2.90;;;;;;;;;;108125;1262;39086;-37
2022/12/31 13:30:16;;;;;;;6.20;3.30;;;;;;;;;;107485;1268;891094;-37
2022/12/31 13:32:55;;;;;;;6.80;3.90;;;;;;;;;;108157;1260;43599;-37
2022/12/31 13:35:33;;;;;;;6.80;3.40;;;;;;;;;;108053;1272;175676;-37
2022/12/31 13:38:10;;;;;;;5.60;3.20;;;;;;;;;;108202;1260;40657;-37
2022/12/31 13:40:49;;;;;;;7.20;3.50;;;;;;;;;;108193;1266;40464;-37
2022/12/31 13:43:27;;;;;;;6.10;3.40;;;;;;;;;;108078;1264;49659;-37
2022/12/31 13:46:10;;;;;;;6.10;3.40;;;;;;;;;;108142;1265;42533;-38
2022/12/31 13:48:48;;;;;;;6.20;3.00;;;;;;;;;;108026;1262;175683;-37
2022/12/31 13:51:29;;;;;;;6.50;3.20;;;;;;;;;;108093;1266;40482;-37
2022/12/31 13:54:09;;;;;;;5.80;3.40;;;;;;;;;;108055;1261;197844;-37
2022/12/31 13:56:41;;;;;;;6.00;3.50;;;;;;;;;;108158;1269;43783;-37
2022/12/31 13:59:19;;;;;;;6.40;3.30;;;;;;;;;;108169;1256;39183;-38
2022/12/31 14:01:56;;;;;;;6.50;3.20;;;;;;;;;;108022;1257;175672;-37
2022/12/31 14:04:33;;;;;;;6.40;3.60;;;;;;;;;;108145;1262;44834;-37
2022/12/31 14:07:09;;;;;;;5.60;3.20;;;;;;;;;;108103;1269;43888;-37
2022/12/31 14:09:39;;;;;;;5.40;2.80;;;;;;;;;;108109;1262;39199;-37
2022/12/31 14:12:26;;;;;;;6.00;3.30;;;;;;;;;;108065;1261;41805;-37
2022/12/31 14:15:06;;;;;;;6.40;3.20;;;;;;;;;;108158;1260;43844;-37
2022/12/31 14:17:46;;;;;;;5.80;3.00;;;;;;;;;;108156;1260;42364;-37
2022/12/31 14:20:28;;;;;;;6.80;3.30;;;;;;;;;;108193;1265;39141;-37
2022/12/31 14:23:11;;;;;;;6.70;3.30;;;;;;;;;;108119;1262;40887;-37
2022/12/31 14:25:50;;;;;;;5.60;3.20;;;;;;;;;;108139;1257;45027;-37
2022/12/31 14:28:24;;;;;;;6.00;3.00;;;;;;;;;;108131;1270;42627;-39
2022/12/31 14:31:02;;;;;;;5.40;3.10;;;;;;;;;;108147;1261;39067;-38
2022/12/31 14:33:40;;;;;;;6.40;3.30;;;;;;;;;;108138;1260;40570;-39
2022/12/31 14:36:36;;;;;;;6.80;3.40;;;;;;;;;;108079;1257;175695;-40
2022/12/31 14:39:36;;;;;;;6.70;3.80;;;;;;;;;;108194;1269;42783;-37
2022/12/31 14:42:21;;;;;;;5.80;3.60;;;;;;;;;;108012;1269;175654;-37
2022/12/31 14:45:07;;;;;;;5.70;3.50;;;;;;;;;;108152;1262;46534;-37
2022/12/31 14:47:57;;;;;;;5.70;3.40;;;;;;;;;;108139;1262;44926;-38
2022/12/31 14:50:29;;;;;;;5.40;3.20;;;;;;;;;;108095;1270;42961;-39
2022/12/31 14:53:15;;;;;;;5.80;3.30;;;;;;;;;;108107;1257;38927;-37
2022/12/31 14:55:57;;;;;;;5.30;3.10;;;;;;;;;;108174;1256;40510;-37
2022/12/31 14:58:35;;;;;;;5.30;3.10;;;;;;;;;;108231;1260;43622;-37
2022/12/31 15:01:08;;;;;;;6.10;3.20;;;;;;;;;;108243;1261;42610;-37
2022/12/31 15:03:44;;;;;;;5.60;3.00;;;;;;;;;;108147;1262;40477;-37
2022/12/31 15:06:55;;;;;;;5.80;3.30;;;;;;;;;;108150;1262;40502;-37
2022/12/31 15:09:58;;;;;;;4.80;2.90;;;;;;;;;;108123;1262;43808;-37
2022/12/31 15:12:49;;;;;;;5.50;2.70;;;;;;;;;;108088;1268;42552;-37
2022/12/31 15:15:46;;;;;;;6.10;3.20;;;;;;;;;;108136;1257;44669;-37
2022/12/31 15:18:47;;;;;;;5.40;2.90;;;;;;;;;;108204;1257;40469;-38
2022/12/31 15:21:53;;;;;;;5.30;3.00;;;;;;;;;;108244;1257;43738;-37
2022/12/31 15:24:26;;;;;;;4.90;2.80;;;;;;;;;;108149;1262;44355;-38
2022/12/31 15:26:58;;;;;;;5.70;3.10;;;;;;;;;;108130;1264;39082;-37
2022/12/31 15:29:35;;;;;;;5.30;3.20;;;;;;;;;;108049;1262;175378;-37
2022/12/31 15:32:17;;;;;;;5.30;3.10;;;;;;;;;;108148;1270;43774;-37
2022/12/31 15:35:02;;;;;;;5.10;2.90;;;;;;;;;;108110;1261;42399;-37
2022/12/31 15:37:40;;;;;;;4.90;2.80;;;;;;;;;;108207;1268;39077;-37
2022/12/31 15:40:23;;;;;;;5.90;3.40;;;;;;;;;;108214;1260;40548;-38
2022/12/31 15:42:58;;;;;;;6.20;3.10;;;;;;;;;;108215;1265;43587;-37
2022/12/31 15:45:36;;;;;;;5.50;3.30;;;;;;;;;;108121;1262;43720;-37
2022/12/31 15:48:21;;;;;;;5.10;3.00;;;;;;;;;;108104;1269;39095;-37
2022/12/31 15:50:59;;;;;;;4.90;2.80;;;;;;;;;;108123;1270;40732;-37
2022/12/31 15:53:40;;;;;;;5.50;3.20;;;;;;;;;;108117;1262;43688;-38
2022/12/31 15:56:22;;;;;;;5.00;3.10;;;;;;;;;;108151;1260;50437;-38
2022/12/31 15:58:58;;;;;;;5.10;2.90;;;;;;;;;;108223;1268;39087;-38
2022/12/31 16:01:32;;;;;;;5.90;3.30;;;;;;;;;;108275;1261;40191;-38
2022/12/31 16:04:13;;;;;;;4.60;2.70;;;;;;;;;;108271;1257;43557;-38
2022/12/31 16:06:43;;;;;;;5.10;2.90;;;;;;;;;;108079;1262;175722;-38